Time;durP1;ratioP1;P1;durP2;ratioP2;P2;SDS_P1;SDS_P2;PMS_P1;PMS_P2;Temp;Humidity;BMP_temperature;BMP_pressure;BME280_temperature;BME280_humidity;BME280_pressure;Samples;Min_cycle;Max_cycle;Signal;HPM_P1;HPM_P2
2022/11/20 00:00:50;;;;;;;99.18;60.38;;;256.70;2252.80;;;;;;5029407;28;20022;-65
2022/11/20 00:03:17;;;;;;;51.67;36.38;;;256.50;2252.80;;;;;;5029927;28;20141;-66
2022/11/20 00:05:43;;;;;;;27.67;21.85;;;256.80;2252.80;;;;;;5029821;28;20033;-67
2022/11/20 00:08:08;;;;;;;130.48;72.20;;;256.70;2252.80;;;;;;5011757;28;20434;-65
2022/11/20 00:10:39;;;;;;;26.73;19.20;;;256.80;2252.80;;;;;;5029460;28;20044;-65
2022/11/20 00:13:06;;;;;;;23.00;19.08;;;256.80;2252.80;;;;;;5029756;28;20054;-64
2022/11/20 00:15:32;;;;;;;31.48;25.50;;;256.90;2252.80;;;;;;5029195;28;20523;-65
2022/11/20 00:17:57;;;;;;;61.65;42.30;;;256.60;2252.80;;;;;;5029516;28;20030;-68
2022/11/20 00:20:23;;;;;;;144.00;86.20;;;256.70;2252.80;;;;;;5029671;28;20062;-67
2022/11/20 00:22:50;;;;;;;89.00;60.75;;;256.80;2252.80;;;;;;5029493;28;20361;-66
2022/11/20 00:25:16;;;;;;;70.13;51.55;;;256.80;2252.80;;;;;;5029608;28;20107;-68
2022/11/20 00:27:42;;;;;;;103.85;67.07;;;256.80;2252.80;;;;;;5030496;28;20033;-68
2022/11/20 00:30:08;;;;;;;89.65;61.38;;;256.90;2252.80;;;;;;5033130;28;20033;-68
2022/11/20 00:32:33;;;;;;;173.57;120.13;;;256.90;2252.80;;;;;;5033382;28;20037;-67
2022/11/20 00:34:59;;;;;;;128.35;84.65;;;256.90;2252.80;;;;;;5033079;28;20375;-67
2022/11/20 00:37:25;;;;;;;78.57;56.78;;;256.80;2252.80;;;;;;5033134;28;20029;-67
2022/11/20 00:39:51;;;;;;;130.48;91.30;;;256.90;2252.80;;;;;;5033111;28;20489;-66
2022/11/20 00:42:17;;;;;;;99.97;67.70;;;256.80;2252.80;;;;;;5033044;28;20224;-67
2022/11/20 00:44:42;;;;;;;112.28;75.93;;;256.90;1996.80;;;;;;5033316;28;20364;-67
2022/11/20 00:47:08;;;;;;;90.85;62.92;;;256.90;2252.80;;;;;;5033254;28;20383;-66
2022/11/20 00:49:34;;;;;;;70.35;46.78;;;256.90;2252.80;;;;;;5033013;28;20128;-66
2022/11/20 00:52:00;;;;;;;61.08;42.60;;;281.60;1996.80;;;;;;5032779;28;20034;-66
2022/11/20 00:54:25;;;;;;;112.07;73.57;;;281.70;2278.40;;;;;;5033024;28;20428;-66
2022/11/20 00:56:53;;;;;;;79.05;55.15;;;281.70;2278.40;;;;;;5032778;28;20109;-66
2022/11/20 00:59:19;;;;;;;43.40;31.08;;;281.70;2278.40;;;;;;5032619;28;20029;-65
2022/11/20 01:01:44;;;;;;;42.50;29.38;;;281.70;2278.40;;;;;;5033024;28;20032;-66
2022/11/20 01:04:10;;;;;;;49.22;33.00;;;281.90;2278.40;;;;;;5032664;28;20025;-67
2022/11/20 01:06:38;;;;;;;47.38;31.50;;;281.90;2278.40;;;;;;5032723;28;20072;-67
2022/11/20 01:09:06;;;;;;;44.95;32.38;;;281.90;2278.40;;;;;;5032607;28;20113;-66
2022/11/20 01:11:35;;;;;;;54.17;39.05;;;282.00;2278.40;;;;;;5032240;28;20036;-66
2022/11/20 01:14:02;;;;;;;75.40;47.47;;;282.00;2278.40;;;;;;5031390;28;20087;-66
2022/11/20 01:16:33;;;;;;;74.20;51.72;;;282.00;2278.40;;;;;;5031247;28;20077;-66
2022/11/20 01:19:02;;;;;;;67.60;48.75;;;282.10;2278.40;;;;;;5031354;28;20091;-67
2022/11/20 01:21:39;;;;;;;57.60;44.53;;;282.10;2278.40;;;;;;5031541;28;20028;-66
2022/11/20 01:24:07;;;;;;;95.10;68.30;;;282.00;2278.40;;;;;;5032725;28;20026;-66
2022/11/20 01:26:35;;;;;;;65.15;46.28;;;282.10;2278.40;;;;;;5032337;28;20029;-66
2022/11/20 01:29:02;;;;;;;56.10;39.92;;;282.00;2278.40;;;;;;5032338;28;20025;-66
2022/11/20 01:31:36;;;;;;;45.97;35.75;;;282.10;2278.40;;;;;;5031987;28;20033;-66
2022/11/20 01:34:09;;;;;;;47.38;38.20;;;282.10;2278.40;;;;;;5032116;28;20026;-66
2022/11/20 01:36:36;;;;;;;48.75;34.92;;;282.10;2278.40;;;;;;5032198;28;20029;-66
2022/11/20 01:39:05;;;;;;;56.03;40.25;;;282.10;2278.40;;;;;;5031809;28;20044;-66
2022/11/20 01:44:20;;;;;;;55.78;40.42;;;282.20;2278.40;;;;;;5032299;28;20423;-67
2022/11/20 01:47:00;;;;;;;57.35;39.47;;;282.20;2278.40;;;;;;5032002;28;20115;-66
2022/11/20 01:49:48;;;;;;;57.58;39.42;;;282.10;2278.40;;;;;;5031835;28;20048;-66
2022/11/20 01:52:27;;;;;;;59.42;39.20;;;281.80;2278.40;;;;;;5031858;28;20084;-67
2022/11/20 01:55:00;;;;;;;51.75;34.97;;;281.60;2124.80;;;;;;5031953;28;20033;-66
2022/11/20 01:57:29;;;;;;;62.60;41.65;;;256.90;2252.80;;;;;;5031834;28;20024;-66
2022/11/20 02:00:03;;;;;;;49.00;35.85;;;281.70;2278.40;;;;;;5031887;28;20057;-66
2022/11/20 02:02:29;;;;;;;38.95;28.15;;;281.80;2278.40;;;;;;5031547;28;20028;-67
2022/11/20 02:05:00;;;;;;;37.60;29.00;;;282.00;2278.40;;;;;;5031789;28;20025;-66
2022/11/20 02:07:27;;;;;;;86.80;77.32;;;281.90;2278.40;;;;;;5031621;28;20021;-67
2022/11/20 02:09:53;;;;;;;35.83;28.65;;;281.90;2278.40;;;;;;5031551;28;20533;-67
2022/11/20 02:15:04;;;;;;;33.28;25.30;;;282.00;2278.40;;;;;;5031410;28;20394;-66
2022/11/20 02:17:30;;;;;;;41.17;26.95;;;281.80;2278.40;;;;;;5031274;28;20026;-66
2022/11/20 02:19:55;;;;;;;70.53;39.75;;;281.90;2278.40;;;;;;5031362;28;20391;-66
2022/11/20 02:22:30;;;;;;;75.30;43.80;;;282.00;2278.40;;;;;;5031109;28;20022;-67
2022/11/20 02:24:58;;;;;;;56.47;33.10;;;282.00;2278.40;;;;;;5031446;28;20046;-67
2022/11/20 02:27:24;;;;;;;60.65;34.90;;;282.10;2278.40;;;;;;5031130;28;20081;-66
2022/11/20 02:29:55;;;;;;;56.50;32.60;;;282.20;2278.40;;;;;;5031058;28;20508;-67
2022/11/20 02:32:25;;;;;;;38.88;25.52;;;282.20;2278.40;;;;;;5031105;28;20087;-67
2022/11/20 02:34:51;;;;;;;30.33;23.15;;;282.20;2278.40;;;;;;5030831;28;20489;-67
2022/11/20 02:37:17;;;;;;;31.58;23.55;;;282.10;2278.40;;;;;;5031083;28;20025;-66
2022/11/20 02:39:46;;;;;;;27.10;20.77;;;282.10;2278.40;;;;;;5030993;28;20068;-67
2022/11/20 02:42:12;;;;;;;31.98;19.65;;;282.10;2278.40;;;;;;5030910;28;20472;-66
2022/11/20 02:44:37;;;;;;;36.72;23.05;;;282.10;2278.40;;;;;;5030869;28;20041;-67
2022/11/20 02:47:03;;;;;;;25.35;18.02;;;282.10;2278.40;;;;;;5030878;28;20029;-66
2022/11/20 02:49:29;;;;;;;22.60;16.25;;;282.10;2278.40;;;;;;5030417;28;20510;-66
2022/11/20 02:51:54;;;;;;;24.42;18.48;;;281.80;2278.40;;;;;;5030226;28;20511;-66
2022/11/20 02:54:20;;;;;;;35.20;26.02;;;281.60;2278.40;;;;;;5030569;28;20159;-67
2022/11/20 02:56:46;;;;;;;94.00;51.92;;;281.90;2278.40;;;;;;5030782;28;20463;-66
2022/11/20 02:59:11;;;;;;;43.90;28.63;;;281.90;2278.40;;;;;;5030574;28;20049;-66
2022/11/20 03:01:37;;;;;;;31.85;23.60;;;281.90;2278.40;;;;;;5030565;28;20092;-67
2022/11/20 03:04:03;;;;;;;28.05;19.73;;;282.10;2278.40;;;;;;5030693;28;20034;-66
2022/11/20 03:06:29;;;;;;;36.38;23.75;;;282.10;2278.40;;;;;;5030270;28;20059;-67
2022/11/20 03:08:54;;;;;;;34.05;22.90;;;282.10;2278.40;;;;;;5030540;28;20021;-65
2022/11/20 03:11:20;;;;;;;21.92;17.20;;;282.10;2278.40;;;;;;5030136;28;20076;-64
2022/11/20 03:13:46;;;;;;;21.45;15.88;;;282.10;2278.40;;;;;;5030559;28;20022;-65
2022/11/20 03:16:15;;;;;;;19.30;14.43;;;282.20;2278.40;;;;;;5029937;28;20053;-64
2022/11/20 03:18:42;;;;;;;21.60;17.30;;;282.10;2278.40;;;;;;5029856;28;20034;-64
2022/11/20 03:21:09;;;;;;;19.60;13.85;;;282.10;2278.40;;;;;;5030546;28;20434;-66
2022/11/20 03:23:35;;;;;;;19.67;15.32;;;282.00;2278.40;;;;;;5030223;28;20033;-64
2022/11/20 03:26:16;;;;;;;18.52;14.38;;;282.00;2278.40;;;;;;5030180;28;20027;-64
2022/11/20 03:28:55;;;;;;;19.20;14.70;;;281.90;2278.40;;;;;;5010426;28;20030;-66
2022/11/20 03:31:23;;;;;;;18.08;13.80;;;281.90;2278.40;;;;;;4992158;28;20394;-64
2022/11/20 03:33:49;;;;;;;21.33;14.82;;;281.90;2278.40;;;;;;5010182;28;20033;-65
2022/11/20 03:36:17;;;;;;;24.27;18.58;;;281.90;2278.40;;;;;;5010480;28;20022;-66
2022/11/20 03:38:43;;;;;;;15.85;12.70;;;281.80;2278.40;;;;;;5010393;28;20157;-68
2022/11/20 03:41:12;;;;;;;19.77;13.50;;;281.80;2278.40;;;;;;5010369;28;20079;-66
2022/11/20 03:43:38;;;;;;;17.60;13.68;;;281.80;2278.40;;;;;;5010367;28;20013;-67
2022/11/20 03:46:05;;;;;;;17.45;12.40;;;281.80;2278.40;;;;;;5010126;28;20033;-66
2022/11/20 03:48:31;;;;;;;14.57;10.80;;;281.80;2278.40;;;;;;5010152;28;20038;-66
2022/11/20 03:51:11;;;;;;;21.70;13.05;;;282.00;2278.40;;;;;;5009910;28;20065;-66
2022/11/20 03:53:38;;;;;;;11.57;9.20;;;281.90;2278.40;;;;;;5010178;28;20029;-67
2022/11/20 03:56:04;;;;;;;14.57;11.55;;;281.70;2278.40;;;;;;5010440;28;20037;-66
2022/11/20 03:58:30;;;;;;;17.10;12.40;;;281.70;2278.40;;;;;;5010084;28;20029;-67
2022/11/20 04:00:55;;;;;;;16.63;11.07;;;281.80;2278.40;;;;;;5010206;28;20468;-67
2022/11/20 04:03:21;;;;;;;19.85;11.57;;;281.90;2278.40;;;;;;5014017;28;20026;-66
2022/11/20 04:05:47;;;;;;;18.02;14.55;;;281.80;2278.40;;;;;;5014089;28;20022;-65
2022/11/20 04:08:12;;;;;;;15.23;10.73;;;281.80;2278.40;;;;;;5014287;28;20361;-65
2022/11/20 04:10:38;;;;;;;15.90;10.73;;;281.70;2278.40;;;;;;5013898;28;20073;-65
2022/11/20 04:13:04;;;;;;;15.07;11.05;;;281.70;2278.40;;;;;;5014103;28;20030;-66
2022/11/20 04:15:29;;;;;;;24.45;18.02;;;281.70;2278.40;;;;;;5013512;28;20042;-65
2022/11/20 04:17:55;;;;;;;17.95;11.95;;;281.70;2278.40;;;;;;5013873;28;20072;-65
2022/11/20 04:20:21;;;;;;;13.52;10.98;;;256.90;2176.00;;;;;;5013695;28;20085;-65
2022/11/20 04:22:47;;;;;;;16.20;11.60;;;281.60;2150.40;;;;;;5013819;28;20033;-66
2022/11/20 04:25:12;;;;;;;17.80;12.48;;;281.90;2278.40;;;;;;5013879;28;20040;-65
2022/11/20 04:27:38;;;;;;;16.88;11.88;;;281.80;2278.40;;;;;;5013455;28;20018;-65
2022/11/20 04:30:04;;;;;;;17.10;12.13;;;281.70;2278.40;;;;;;5013677;28;20050;-66
2022/11/20 04:32:30;;;;;;;18.67;13.65;;;281.70;2278.40;;;;;;5013538;28;20881;-65
2022/11/20 04:34:55;;;;;;;19.13;13.85;;;281.90;2278.40;;;;;;5013666;28;20029;-67
2022/11/20 04:37:21;;;;;;;15.77;12.27;;;281.80;2278.40;;;;;;5013320;28;20025;-68
2022/11/20 04:39:47;;;;;;;22.88;15.27;;;281.90;2278.40;;;;;;5013478;28;20036;-68
2022/11/20 04:42:30;;;;;;;15.48;11.15;;;281.90;2278.40;;;;;;5013272;28;20061;-68
2022/11/20 04:44:57;;;;;;;16.65;13.00;;;281.90;2278.40;;;;;;5013498;28;20502;-65
2022/11/20 04:47:22;;;;;;;16.80;12.32;;;282.00;2278.40;;;;;;5013354;28;20123;-64
2022/11/20 04:49:48;;;;;;;19.55;14.77;;;282.00;2278.40;;;;;;5013359;28;20089;-64
2022/11/20 04:52:14;;;;;;;14.95;10.90;;;282.00;2278.40;;;;;;5013335;28;20037;-65
2022/11/20 04:54:39;;;;;;;16.00;12.48;;;282.00;2278.40;;;;;;5013131;28;20034;-66
2022/11/20 04:57:06;;;;;;;16.15;10.80;;;282.00;2278.40;;;;;;5013169;28;20109;-65
2022/11/20 04:59:31;;;;;;;15.13;10.80;;;282.00;2278.40;;;;;;5013252;28;20057;-66
2022/11/20 05:01:57;;;;;;;17.00;11.55;;;282.00;2278.40;;;;;;5012872;28;20112;-66
2022/11/20 05:04:23;;;;;;;22.13;13.85;;;282.00;2278.40;;;;;;5013366;28;20030;-65
2022/11/20 05:06:50;;;;;;;14.68;12.02;;;281.90;2278.40;;;;;;5012935;28;20527;-65
2022/11/20 05:09:15;;;;;;;16.35;11.13;;;281.80;2278.40;;;;;;5013136;28;20034;-65
2022/11/20 05:11:41;;;;;;;15.48;11.88;;;281.80;2278.40;;;;;;5012797;28;20384;-66
2022/11/20 05:14:07;;;;;;;17.67;11.63;;;281.80;2278.40;;;;;;5012024;28;20034;-67
2022/11/20 05:16:35;;;;;;;15.07;10.20;;;281.80;2278.40;;;;;;5012491;28;20059;-66
2022/11/20 05:19:00;;;;;;;15.48;10.63;;;281.80;2278.40;;;;;;5012545;28;20527;-65
2022/11/20 05:21:27;;;;;;;12.82;10.15;;;281.70;2278.40;;;;;;5012082;28;20018;-65
2022/11/20 05:23:53;;;;;;;20.00;10.85;;;281.60;2278.40;;;;;;5011775;28;20028;-66
2022/11/20 05:26:23;;;;;;;14.23;11.15;;;281.60;2278.40;;;;;;5011634;28;20100;-65
2022/11/20 05:28:50;;;;;;;20.30;14.55;;;281.60;2278.40;;;;;;5011217;28;20018;-66
2022/11/20 05:31:21;;;;;;;19.58;15.73;;;281.70;2278.40;;;;;;5011497;28;20041;-66
2022/11/20 05:33:47;;;;;;;22.02;14.90;;;281.80;2278.40;;;;;;5011368;28;20026;-66
2022/11/20 05:36:14;;;;;;;17.83;14.70;;;256.90;2252.80;;;;;;5011482;28;20036;-66
2022/11/20 05:38:41;;;;;;;17.55;13.38;;;256.70;2252.80;;;;;;5011396;28;20479;-65
2022/11/20 05:41:15;;;;;;;17.52;13.35;;;256.80;2252.80;;;;;;5011349;28;20037;-66
2022/11/20 05:43:43;;;;;;;22.67;15.63;;;256.70;2252.80;;;;;;5011114;28;20025;-65
2022/11/20 05:46:11;;;;;;;17.52;12.75;;;256.80;2252.80;;;;;;5011165;28;20026;-66
2022/11/20 05:48:38;;;;;;;17.88;13.30;;;256.70;2252.80;;;;;;4993626;28;20061;-65
2022/11/20 05:51:05;;;;;;;20.05;15.13;;;256.80;2252.80;;;;;;5011204;28;20615;-65
2022/11/20 05:53:33;;;;;;;18.05;13.50;;;256.70;2252.80;;;;;;5011246;28;20052;-66
2022/11/20 05:56:08;;;;;;;19.23;13.60;;;256.60;2252.80;;;;;;5010897;28;20109;-66
2022/11/20 05:58:34;;;;;;;17.42;11.98;;;256.60;2252.80;;;;;;5010978;28;20022;-64
2022/11/20 06:01:04;;;;;;;13.60;10.23;;;256.50;2252.80;;;;;;5011265;28;20034;-66
2022/11/20 06:03:29;;;;;;;14.02;9.65;;;256.50;2252.80;;;;;;5012020;28;20106;-65
2022/11/20 06:05:55;;;;;;;15.75;9.93;;;256.30;2252.80;;;;;;5012090;28;20476;-66
2022/11/20 06:08:20;;;;;;;12.55;10.52;;;256.40;2252.80;;;;;;5011834;28;20022;-65
2022/11/20 06:10:46;;;;;;;12.98;9.38;;;256.50;2252.80;;;;;;5011908;28;20044;-65
2022/11/20 06:13:12;;;;;;;15.68;9.85;;;256.70;2252.80;;;;;;5011673;28;20026;-66
2022/11/20 06:15:37;;;;;;;12.82;8.05;;;256.70;2252.80;;;;;;5011255;28;20045;-67
2022/11/20 06:18:03;;;;;;;12.10;10.88;;;256.50;2252.80;;;;;;5011905;28;20037;-66
2022/11/20 06:20:29;;;;;;;13.23;10.07;;;256.50;2252.80;;;;;;5011544;28;20029;-67
2022/11/20 06:22:55;;;;;;;19.40;10.77;;;256.40;2252.80;;;;;;5011759;28;20076;-64
2022/11/20 06:25:20;;;;;;;12.75;8.27;;;256.40;2252.80;;;;;;5011376;28;20476;-66
2022/11/20 06:27:46;;;;;;;14.75;9.10;;;256.50;2252.80;;;;;;5011464;28;20018;-65
2022/11/20 06:30:12;;;;;;;13.55;8.82;;;256.40;2252.80;;;;;;5011332;28;20084;-66
2022/11/20 06:32:38;;;;;;;14.27;10.25;;;256.60;2252.80;;;;;;5011556;28;20022;-66
2022/11/20 06:35:04;;;;;;;31.58;23.98;;;256.60;2252.80;;;;;;5011588;28;20105;-66
2022/11/20 06:37:29;;;;;;;14.18;9.77;;;256.70;2252.80;;;;;;5011326;28;20041;-65
2022/11/20 06:39:55;;;;;;;15.38;13.75;;;256.70;2252.80;;;;;;5011517;28;20518;-65
2022/11/20 06:42:21;;;;;;;19.10;16.92;;;256.50;2252.80;;;;;;5011193;28;20022;-65
2022/11/20 06:44:46;;;;;;;14.57;10.10;;;256.60;2252.80;;;;;;5010949;28;20025;-63
2022/11/20 06:47:12;;;;;;;25.65;20.75;;;256.60;2252.80;;;;;;5011228;28;20068;-65
2022/11/20 06:49:38;;;;;;;13.82;10.60;;;256.50;2252.80;;;;;;5011369;28;20030;-65
2022/11/20 06:52:04;;;;;;;25.23;16.00;;;256.40;2252.80;;;;;;5011199;28;20029;-65
2022/11/20 06:54:30;;;;;;;32.53;23.00;;;256.40;2252.80;;;;;;5010867;28;20105;-64
2022/11/20 06:56:56;;;;;;;25.25;20.30;;;256.40;2252.80;;;;;;5011033;28;20164;-66
2022/11/20 06:59:22;;;;;;;32.88;23.98;;;256.50;2252.80;;;;;;5010946;28;20022;-66
2022/11/20 07:01:48;;;;;;;23.38;20.83;;;256.50;2252.80;;;;;;5010733;28;20022;-65
2022/11/20 07:04:13;;;;;;;48.63;37.42;;;256.60;2252.80;;;;;;5011012;28;20084;-65
2022/11/20 07:06:39;;;;;;;38.25;34.05;;;256.50;2252.80;;;;;;5010757;28;20053;-64
2022/11/20 07:09:05;;;;;;;27.52;24.15;;;256.60;2252.80;;;;;;5010754;28;20069;-65
2022/11/20 07:11:30;;;;;;;35.33;25.95;;;256.80;2252.80;;;;;;5010626;28;20096;-64
2022/11/20 07:13:57;;;;;;;25.60;19.27;;;256.60;2252.80;;;;;;5010619;28;20543;-66
2022/11/20 07:16:22;;;;;;;29.65;26.80;;;256.60;2252.80;;;;;;5009465;28;20050;-67
2022/11/20 07:18:48;;;;;;;26.60;24.10;;;256.80;2252.80;;;;;;5009539;28;20097;-68
2022/11/20 07:21:14;;;;;;;17.30;14.02;;;256.60;2252.80;;;;;;5009671;28;20100;-67
2022/11/20 07:23:40;;;;;;;15.05;11.60;;;256.70;2252.80;;;;;;5010193;28;20076;-68
2022/11/20 07:26:10;;;;;;;14.55;11.35;;;256.80;2252.80;;;;;;5010588;28;20026;-68
2022/11/20 07:28:37;;;;;;;17.45;11.57;;;281.60;2278.40;;;;;;5010574;28;20353;-68
2022/11/20 07:31:04;;;;;;;122.75;96.75;;;281.60;2278.40;;;;;;5010401;28;20034;-67
2022/11/20 07:33:30;;;;;;;42.17;36.05;;;256.90;2252.80;;;;;;5010421;28;20053;-68
2022/11/20 07:35:57;;;;;;;34.20;27.83;;;256.80;2252.80;;;;;;5010112;28;20468;-68
2022/11/20 07:38:23;;;;;;;17.25;14.18;;;256.90;2252.80;;;;;;5010480;28;20026;-70
2022/11/20 07:40:54;;;;;;;38.72;35.42;;;256.90;2252.80;;;;;;5010149;28;20388;-68
2022/11/20 07:43:19;;;;;;;18.00;15.10;;;256.80;2252.80;;;;;;5009947;28;20026;-68
2022/11/20 07:45:45;;;;;;;9.73;7.68;;;256.90;2252.80;;;;;;5010116;28;20044;-67
2022/11/20 07:48:11;;;;;;;11.95;7.25;;;256.90;2252.80;;;;;;5010272;28;20487;-68
2022/11/20 07:50:36;;;;;;;11.10;7.65;;;281.60;2278.40;;;;;;5010344;28;20490;-67
2022/11/20 07:53:05;;;;;;;10.98;6.50;;;256.80;2252.80;;;;;;5010610;28;20325;-67
2022/11/20 07:55:32;;;;;;;11.20;7.53;;;256.80;2252.80;;;;;;5010018;28;20033;-67
2022/11/20 07:57:58;;;;;;;13.00;9.57;;;256.70;2252.80;;;;;;5009962;28;20026;-68
2022/11/20 08:00:25;;;;;;;10.07;7.80;;;256.90;2252.80;;;;;;5010276;28;20036;-69
2022/11/20 08:02:51;;;;;;;22.65;17.92;;;256.90;2252.80;;;;;;5010226;28;20384;-68
2022/11/20 08:05:17;;;;;;;13.32;10.43;;;281.60;2278.40;;;;;;5010015;28;20029;-69
2022/11/20 08:07:44;;;;;;;16.23;12.07;;;281.60;2278.40;;;;;;5010169;28;20022;-68
2022/11/20 08:10:12;;;;;;;19.50;13.43;;;281.60;2278.40;;;;;;5009965;28;20516;-67
2022/11/20 08:15:29;;;;;;;20.98;16.70;;;256.80;2252.80;;;;;;5009565;28;20163;-67
2022/11/20 08:18:02;;;;;;;25.65;22.77;;;256.90;2252.80;;;;;;5008535;28;20121;-66
2022/11/20 08:20:28;;;;;;;15.88;13.18;;;256.80;2252.80;;;;;;5009865;28;20030;-67
2022/11/20 08:22:59;;;;;;;18.52;13.27;;;256.80;2252.80;;;;;;4992140;28;20058;-65
2022/11/20 08:25:25;;;;;;;20.20;14.48;;;281.60;2278.40;;;;;;5009967;28;20036;-65
2022/11/20 08:27:51;;;;;;;16.02;10.18;;;281.60;2278.40;;;;;;5009681;28;20053;-67
2022/11/20 08:30:17;;;;;;;15.48;12.73;;;256.80;2252.80;;;;;;5009790;28;20070;-67
2022/11/20 08:32:43;;;;;;;15.90;11.75;;;256.80;2252.80;;;;;;5010097;28;20029;-66
2022/11/20 08:35:08;;;;;;;15.85;12.10;;;256.80;2252.80;;;;;;5009722;28;20026;-67
2022/11/20 08:37:34;;;;;;;18.98;15.10;;;281.60;2278.40;;;;;;5009831;28;20046;-66
2022/11/20 08:40:00;;;;;;;27.45;22.10;;;281.60;2278.40;;;;;;5009754;28;20881;-67
2022/11/20 08:42:25;;;;;;;37.75;28.55;;;256.80;2252.80;;;;;;5009778;28;20030;-66
2022/11/20 08:44:51;;;;;;;20.30;15.90;;;256.70;2252.80;;;;;;5009706;28;20030;-66
2022/11/20 08:47:17;;;;;;;33.25;27.88;;;256.90;2252.80;;;;;;5009571;28;20145;-67
2022/11/20 08:49:42;;;;;;;34.75;25.88;;;256.90;2252.80;;;;;;5012165;28;20389;-65
2022/11/20 08:52:08;;;;;;;27.48;20.80;;;281.60;2278.40;;;;;;5013350;28;20075;-66
2022/11/20 08:54:34;;;;;;;32.03;27.80;;;281.60;2278.40;;;;;;5013607;28;20092;-66
2022/11/20 08:56:59;;;;;;;14.98;10.65;;;256.80;2252.80;;;;;;4995013;28;20030;-66
2022/11/20 08:59:25;;;;;;;12.93;9.43;;;256.70;2252.80;;;;;;5013261;28;20022;-66
2022/11/20 09:01:51;;;;;;;17.83;11.77;;;256.80;2252.80;;;;;;5013139;28;20029;-67
2022/11/20 09:04:16;;;;;;;15.80;12.60;;;256.90;2252.80;;;;;;5013573;28;20377;-66
2022/11/20 09:06:42;;;;;;;21.23;18.33;;;281.60;2278.40;;;;;;5013210;28;20468;-67
2022/11/20 09:09:08;;;;;;;29.83;26.42;;;281.60;2278.40;;;;;;5012970;28;20026;-66
2022/11/20 09:11:35;;;;;;;37.45;26.27;;;281.70;2278.40;;;;;;5013006;28;20037;-66
2022/11/20 09:14:02;;;;;;;43.90;30.50;;;281.60;2278.40;;;;;;5012556;28;20033;-67
2022/11/20 09:16:28;;;;;;;29.30;21.10;;;281.60;2278.40;;;;;;5012332;28;20463;-67
2022/11/20 09:18:54;;;;;;;22.60;16.42;;;256.90;2252.80;;;;;;5012960;28;20113;-67
2022/11/20 09:21:19;;;;;;;16.58;13.10;;;256.90;2252.80;;;;;;5012545;28;20022;-67
2022/11/20 09:23:45;;;;;;;18.60;12.90;;;281.60;2278.40;;;;;;5012937;28;20101;-67
2022/11/20 09:26:12;;;;;;;11.45;8.48;;;256.80;2252.80;;;;;;5012527;28;20033;-67
2022/11/20 09:28:38;;;;;;;14.95;11.45;;;281.60;2278.40;;;;;;5012330;28;20032;-67
2022/11/20 09:31:36;;;;;;;12.68;9.48;;;281.60;2278.40;;;;;;5012606;28;20113;-67
2022/11/20 09:34:02;;;;;;;11.90;9.07;;;281.70;2278.40;;;;;;4990771;28;20034;-67
2022/11/20 09:36:28;;;;;;;11.27;8.30;;;256.70;2252.80;;;;;;4990557;28;20468;-67
2022/11/20 09:38:56;;;;;;;10.43;8.93;;;256.50;2252.80;;;;;;4990800;28;20415;-66
2022/11/20 09:41:45;;;;;;;10.35;7.95;;;256.70;2252.80;;;;;;4990715;28;20022;-67
2022/11/20 09:44:48;;;;;;;18.63;16.80;;;256.90;2252.80;;;;;;4990488;28;20066;-67
2022/11/20 09:47:35;;;;;;;11.57;8.82;;;281.70;2278.40;;;;;;4990272;28;20117;-66
2022/11/20 09:50:32;;;;;;;11.50;8.30;;;281.70;2278.40;;;;;;4990179;28;20058;-65
2022/11/20 09:52:58;;;;;;;17.10;13.13;;;281.80;2278.40;;;;;;4913523;29;20427;-67
2022/11/20 09:55:25;;;;;;;13.65;10.25;;;281.60;2278.40;;;;;;4912819;29;20122;-66
2022/11/20 09:57:52;;;;;;;12.70;9.07;;;281.60;2278.40;;;;;;4913062;29;20051;-67
2022/11/20 10:00:21;;;;;;;14.65;11.25;;;281.80;2278.40;;;;;;4912927;29;20036;-68
2022/11/20 10:03:14;;;;;;;12.13;9.32;;;281.70;2278.40;;;;;;4913476;29;20505;-65
2022/11/20 10:05:50;;;;;;;11.45;8.50;;;281.80;2278.40;;;;;;4912600;29;20020;-63
2022/11/20 10:08:47;;;;;;;10.50;8.00;;;281.90;2278.40;;;;;;4911556;29;20125;-62
2022/11/20 10:11:23;;;;;;;13.25;8.45;;;281.70;2278.40;;;;;;4951495;29;20039;-56
2022/11/20 10:14:16;;;;;;;14.23;8.55;;;281.70;2278.40;;;;;;4950974;29;20034;-57
2022/11/20 10:16:48;;;;;;;15.70;10.82;;;281.70;2278.40;;;;;;4950803;29;20069;-58
2022/11/20 10:19:55;;;;;;;18.45;13.45;;;281.80;2278.40;;;;;;4951238;29;20046;-58
2022/11/20 10:22:48;;;;;;;26.20;18.77;;;281.80;2278.40;;;;;;4950969;29;20042;-58
2022/11/20 10:25:18;;;;;;;13.98;10.27;;;281.60;2278.40;;;;;;4951166;29;20035;-58
2022/11/20 10:28:11;;;;;;;16.23;12.30;;;256.90;2252.80;;;;;;4960498;28;20446;-58
2022/11/20 10:30:42;;;;;;;15.60;9.60;;;256.90;2252.80;;;;;;4991176;28;20404;-58
2022/11/20 10:33:23;;;;;;;13.88;9.63;;;256.70;2252.80;;;;;;5009609;28;20026;-58
2022/11/20 10:35:52;;;;;;;20.77;14.30;;;256.60;2252.80;;;;;;5009603;28;20026;-59
2022/11/20 10:38:29;;;;;;;12.63;9.70;;;256.50;2252.80;;;;;;5009780;28;20026;-58
2022/11/20 10:43:46;;;;;;;75.40;56.08;;;256.90;2252.80;;;;;;5009250;28;20045;-58
2022/11/20 10:46:19;;;;;;;41.13;31.45;;;256.70;2252.80;;;;;;5009290;28;20141;-58
2022/11/20 10:48:47;;;;;;;27.42;19.15;;;256.60;2252.80;;;;;;5009485;28;20037;-58
2022/11/20 10:51:17;;;;;;;13.95;10.18;;;256.90;2252.80;;;;;;5009444;28;20033;-57
2022/11/20 10:53:56;;;;;;;14.23;9.00;;;256.70;2252.80;;;;;;5009518;28;20029;-58
2022/11/20 10:56:54;;;;;;;12.35;9.27;;;256.50;2252.80;;;;;;5009103;28;20036;-58
2022/11/20 11:00:07;;;;;;;19.67;15.48;;;256.60;2252.80;;;;;;4967128;28;20039;-59
2022/11/20 11:02:33;;;;;;;17.48;12.63;;;256.70;2252.80;;;;;;4910259;29;20115;-58
2022/11/20 11:05:21;;;;;;;15.25;11.57;;;256.60;2252.80;;;;;;4920341;29;20028;-57
2022/11/20 11:07:51;;;;;;;14.85;9.50;;;256.70;2252.80;;;;;;4853004;29;20128;-58
2022/11/20 11:10:25;;;;;;;14.32;9.93;;;256.50;2252.80;;;;;;4853632;29;20045;-59
2022/11/20 11:12:51;;;;;;;12.88;9.93;;;256.50;2252.80;;;;;;4853598;29;20041;-58
2022/11/20 11:15:36;;;;;;;20.58;13.68;;;256.60;2252.80;;;;;;4853701;29;20064;-58
2022/11/20 11:18:02;;;;;;;16.65;11.73;;;256.70;2252.80;;;;;;4853941;29;20039;-58
2022/11/20 11:20:28;;;;;;;19.50;11.57;;;256.70;2252.80;;;;;;4853838;29;20446;-58
2022/11/20 11:22:56;;;;;;;16.30;11.70;;;256.70;2252.80;;;;;;4853672;29;20050;-58
2022/11/20 11:25:36;;;;;;;15.68;10.45;;;256.90;2252.80;;;;;;4854073;29;20060;-58
2022/11/20 11:28:19;;;;;;;20.75;16.17;;;256.80;2252.80;;;;;;4854010;29;20488;-58
2022/11/20 11:30:46;;;;;;;16.00;12.02;;;281.60;2278.40;;;;;;4853951;29;20132;-58
2022/11/20 11:33:19;;;;;;;15.23;11.65;;;256.80;2252.80;;;;;;4853955;29;20037;-57
2022/11/20 11:35:47;;;;;;;13.25;10.10;;;256.90;2252.80;;;;;;4872390;29;20040;-58
2022/11/20 11:38:19;;;;;;;13.73;10.32;;;256.80;2252.80;;;;;;4902448;29;20035;-58
2022/11/20 11:40:46;;;;;;;14.38;11.45;;;256.90;2252.80;;;;;;4948044;29;20027;-58
2022/11/20 11:46:30;;;;;;;16.65;11.38;;;256.90;2252.80;;;;;;5028567;28;20442;-59
2022/11/20 11:49:08;;;;;;;12.23;9.57;;;256.70;2252.80;;;;;;5027972;28;20107;-58
2022/11/20 11:51:51;;;;;;;13.98;10.75;;;256.60;2252.80;;;;;;5028388;28;20116;-58
2022/11/20 11:54:23;;;;;;;15.93;11.55;;;256.70;2252.80;;;;;;5028448;28;20148;-58
2022/11/20 11:56:50;;;;;;;14.73;10.45;;;256.60;2252.80;;;;;;5012341;28;20029;-58
2022/11/20 11:59:27;;;;;;;16.80;11.00;;;256.40;2252.80;;;;;;5029968;28;20026;-57
2022/11/20 12:02:03;;;;;;;22.05;14.95;;;256.50;2252.80;;;;;;5029841;28;20108;-58
2022/11/20 12:04:54;;;;;;;12.65;10.20;;;256.30;2252.80;;;;;;5029899;28;20017;-57
2022/11/20 12:07:45;;;;;;;14.23;9.98;;;256.20;2252.80;;;;;;5029714;28;20024;-57
2022/11/20 12:10:22;;;;;;;14.90;13.30;;;256.20;2252.80;;;;;;5028600;28;20052;-57
2022/11/20 12:13:01;;;;;;;16.08;11.35;;;256.00;2252.80;;;;;;5011690;28;20041;-58
2022/11/20 12:15:30;;;;;;;17.55;11.50;;;256.00;2252.80;;;;;;5029355;28;20057;-57
2022/11/20 12:17:56;;;;;;;13.40;11.05;;;256.10;2252.80;;;;;;5027107;28;20033;-57
2022/11/20 12:20:41;;;;;;;12.73;10.00;;;256.40;2252.80;;;;;;5028125;28;20393;-57
2022/11/20 12:23:31;;;;;;;13.02;10.02;;;256.20;2252.80;;;;;;5029687;28;20171;-57
2022/11/20 12:26:00;;;;;;;19.80;12.60;;;256.10;2252.80;;;;;;5031932;28;20033;-58